Time;durP1;ratioP1;P1;durP2;ratioP2;P2;SDS_P1;SDS_P2;PMS_P1;PMS_P2;Temp;Humidity;BMP_temperature;BMP_pressure;BME280_temperature;BME280_humidity;BME280_pressure;Samples;Min_cycle;Max_cycle;Signal;HPM_P1;HPM_P2
2023/01/31 00:01:28;;;;;;;5.38;1.13;;;8.40;84.20;;;;;;6226966;23;20075;-79
2023/01/31 00:03:56;;;;;;;5.40;1.20;;;8.50;84.20;;;;;;6247856;23;20008;-80
2023/01/31 00:06:35;;;;;;;5.95;1.48;;;8.50;84.20;;;;;;6248647;23;20008;-82
2023/01/31 00:09:03;;;;;;;5.40;1.35;;;8.50;84.30;;;;;;6249660;23;20008;-79
2023/01/31 00:11:29;;;;;;;5.28;1.75;;;8.50;84.20;;;;;;6251840;22;20008;-79
2023/01/31 00:13:56;;;;;;;6.68;1.80;;;8.40;84.20;;;;;;6252490;23;20005;-80
2023/01/31 00:16:22;;;;;;;5.78;1.58;;;8.40;84.20;;;;;;6252524;22;20039;-79
2023/01/31 00:18:48;;;;;;;5.72;1.23;;;8.40;84.20;;;;;;6253409;22;20039;-80
2023/01/31 00:21:25;;;;;;;4.40;1.08;;;8.40;84.20;;;;;;6252574;22;20004;-79
2023/01/31 00:23:52;;;;;;;4.22;1.17;;;8.40;84.20;;;;;;6251628;23;20029;-79
2023/01/31 00:26:29;;;;;;;5.50;1.50;;;8.40;84.20;;;;;;6249514;23;20050;-79
2023/01/31 00:28:56;;;;;;;4.20;1.45;;;8.40;84.20;;;;;;6248704;23;20007;-79
2023/01/31 00:31:24;;;;;;;5.80;1.60;;;8.40;84.20;;;;;;6249922;22;20004;-80
2023/01/31 00:33:51;;;;;;;4.22;1.00;;;8.40;84.70;;;;;;6249820;23;20000;-79
2023/01/31 00:36:22;;;;;;;6.30;1.45;;;8.50;84.30;;;;;;6252022;23;20430;-79
2023/01/31 00:38:49;;;;;;;4.03;1.20;;;8.40;84.20;;;;;;6251313;23;20020;-80
2023/01/31 00:41:15;;;;;;;4.80;1.00;;;8.50;84.30;;;;;;6250444;22;20008;-80
2023/01/31 00:43:40;;;;;;;4.35;1.45;;;8.50;84.30;;;;;;6250886;22;20054;-80
2023/01/31 00:46:06;;;;;;;4.72;1.33;;;8.40;84.30;;;;;;6247889;23;20000;-79
2023/01/31 00:48:32;;;;;;;5.65;1.25;;;8.40;84.20;;;;;;6248300;23;20431;-80
2023/01/31 00:50:57;;;;;;;5.45;1.48;;;8.40;84.30;;;;;;6252370;22;19984;-79
2023/01/31 00:53:24;;;;;;;5.30;1.10;;;8.50;84.30;;;;;;6249649;23;20004;-81
2023/01/31 00:55:51;;;;;;;5.55;1.40;;;8.50;84.30;;;;;;6250118;23;20004;-81
2023/01/31 00:58:17;;;;;;;5.75;1.60;;;8.40;84.20;;;;;;6251892;23;20008;-79
2023/01/31 01:00:43;;;;;;;5.50;1.20;;;8.50;84.30;;;;;;6249683;22;20042;-80
2023/01/31 01:03:08;;;;;;;6.13;1.15;;;8.40;84.30;;;;;;6250227;23;20008;-82
2023/01/31 01:05:34;;;;;;;6.78;1.35;;;8.50;84.40;;;;;;6250533;22;20561;-79
2023/01/31 01:07:59;;;;;;;5.38;1.15;;;8.40;84.30;;;;;;6247654;23;20031;-79
2023/01/31 01:10:25;;;;;;;6.50;1.35;;;8.50;84.40;;;;;;6239021;22;19996;-80
2023/01/31 01:12:50;;;;;;;6.38;1.13;;;8.40;84.30;;;;;;6102391;23;20089;-79
2023/01/31 01:15:16;;;;;;;4.30;1.27;;;8.50;84.40;;;;;;6100719;23;20002;-79
2023/01/31 01:17:41;;;;;;;5.78;1.40;;;8.40;84.30;;;;;;6112018;23;20032;-78
2023/01/31 01:20:07;;;;;;;3.88;1.30;;;8.50;84.40;;;;;;6138497;23;20002;-82
2023/01/31 01:22:34;;;;;;;4.50;1.20;;;8.40;84.30;;;;;;6111501;23;20010;-81
2023/01/31 01:24:59;;;;;;;4.05;1.02;;;8.50;84.40;;;;;;6110198;23;20032;-80
2023/01/31 01:27:26;;;;;;;4.13;1.00;;;8.50;84.40;;;;;;6110896;23;20009;-82
2023/01/31 01:29:52;;;;;;;4.80;1.30;;;8.40;84.40;;;;;;6110245;23;20032;-80
2023/01/31 01:32:18;;;;;;;5.75;1.67;;;8.40;84.40;;;;;;6109263;23;20057;-81
2023/01/31 01:34:43;;;;;;;6.88;1.63;;;8.50;84.40;;;;;;6109641;23;20002;-82
2023/01/31 01:37:10;;;;;;;5.05;1.33;;;8.40;84.40;;;;;;6109225;23;20020;-81
2023/01/31 01:39:39;;;;;;;4.72;1.40;;;8.50;84.50;;;;;;6108695;23;20013;-81
2023/01/31 01:42:07;;;;;;;4.47;1.33;;;8.50;84.50;;;;;;6107723;23;20013;-80
2023/01/31 01:44:53;;;;;;;5.32;1.15;;;8.40;84.40;;;;;;6104013;23;20006;-79
2023/01/31 01:47:22;;;;;;;4.65;1.17;;;8.50;84.50;;;;;;6107063;23;20069;-79
2023/01/31 01:49:53;;;;;;;4.63;1.17;;;8.50;84.40;;;;;;6106954;23;20442;-81
2023/01/31 01:52:21;;;;;;;4.40;1.02;;;8.50;84.40;;;;;;6107098;23;20002;-79
2023/01/31 01:54:59;;;;;;;4.25;1.25;;;8.40;84.40;;;;;;6106008;23;20022;-79
2023/01/31 01:57:33;;;;;;;5.63;1.05;;;8.50;84.50;;;;;;6132886;23;20033;-79
2023/01/31 02:00:13;;;;;;;3.72;0.85;;;8.50;84.50;;;;;;6105430;23;20010;-81
2023/01/31 02:02:39;;;;;;;4.32;1.10;;;8.40;84.50;;;;;;6103552;23;20232;-80
2023/01/31 02:05:07;;;;;;;3.95;1.10;;;8.50;84.50;;;;;;6112551;23;20085;-79
2023/01/31 02:07:32;;;;;;;4.70;1.00;;;8.40;84.40;;;;;;6111900;23;20440;-80
2023/01/31 02:10:08;;;;;;;3.67;1.20;;;8.40;84.50;;;;;;6137049;23;20006;-81
2023/01/31 02:12:35;;;;;;;4.07;1.15;;;8.40;84.50;;;;;;6256026;23;20350;-80
2023/01/31 02:15:01;;;;;;;4.55;1.10;;;8.50;84.50;;;;;;6259237;23;20064;-77
2023/01/31 02:17:26;;;;;;;3.65;1.17;;;8.40;84.40;;;;;;6257935;23;20000;-81
2023/01/31 02:20:11;;;;;;;4.07;1.10;;;8.40;84.50;;;;;;6258338;23;20067;-80
2023/01/31 02:22:44;;;;;;;4.53;1.13;;;8.40;84.50;;;;;;6258196;23;20030;-81
2023/01/31 02:25:50;;;;;;;3.72;1.02;;;8.40;84.50;;;;;;6256058;23;20447;-77
2023/01/31 02:28:24;;;;;;;6.53;1.33;;;8.50;84.50;;;;;;6256482;23;20039;-79
2023/01/31 02:30:58;;;;;;;3.55;1.10;;;8.50;84.50;;;;;;6258044;22;20007;-79
2023/01/31 02:33:42;;;;;;;5.32;1.00;;;8.50;84.50;;;;;;6255704;23;20453;-80
2023/01/31 02:36:16;;;;;;;3.33;1.10;;;8.50;84.60;;;;;;6255470;23;20508;-80
2023/01/31 02:39:10;;;;;;;3.60;1.08;;;8.50;84.50;;;;;;6249797;23;20008;-80
2023/01/31 02:41:35;;;;;;;4.75;1.58;;;8.50;84.60;;;;;;6247830;22;20004;-80
2023/01/31 02:47:51;;;;;;;3.65;1.10;;;8.50;84.60;;;;;;6254882;23;20019;-79
2023/01/31 02:50:29;;;;;;;3.78;1.05;;;8.50;84.60;;;;;;6252468;22;20008;-80
2023/01/31 02:53:20;;;;;;;3.45;1.00;;;8.40;84.50;;;;;;6252896;23;20434;-79
2023/01/31 02:56:14;;;;;;;2.88;0.88;;;8.40;84.60;;;;;;6252970;23;20083;-80
2023/01/31 02:58:43;;;;;;;3.55;1.10;;;8.50;84.60;;;;;;6252031;23;20450;-79
2023/01/31 03:01:13;;;;;;;3.72;1.10;;;8.50;84.70;;;;;;6252553;22;20004;-80
2023/01/31 03:03:40;;;;;;;3.55;0.95;;;8.40;84.60;;;;;;6251813;23;20006;-80
2023/01/31 03:06:22;;;;;;;4.57;1.38;;;8.40;84.60;;;;;;6251563;23;20412;-79
2023/01/31 03:09:05;;;;;;;4.35;1.30;;;8.40;84.60;;;;;;6252095;23;20063;-79
2023/01/31 03:11:52;;;;;;;3.90;1.08;;;8.50;84.60;;;;;;6249605;22;20320;-79
2023/01/31 03:14:34;;;;;;;4.05;1.00;;;8.40;84.60;;;;;;6248466;23;20010;-79
2023/01/31 03:20:11;;;;;;;3.85;1.20;;;8.40;84.60;;;;;;6251388;23;20015;-79
2023/01/31 03:22:42;;;;;;;3.88;1.17;;;8.50;84.70;;;;;;6249296;23;20004;-79
2023/01/31 03:25:10;;;;;;;4.90;1.10;;;8.50;84.70;;;;;;6251099;23;20469;-80
2023/01/31 03:27:39;;;;;;;2.67;0.90;;;8.40;84.60;;;;;;6251897;23;20015;-80
2023/01/31 03:30:14;;;;;;;4.57;1.10;;;8.40;84.60;;;;;;6252144;23;20027;-80
2023/01/31 03:32:54;;;;;;;3.80;0.82;;;8.40;84.60;;;;;;6252062;23;20001;-78
2023/01/31 03:35:24;;;;;;;2.65;1.00;;;8.50;84.70;;;;;;6246353;23;20000;-80
2023/01/31 03:38:05;;;;;;;4.30;0.95;;;8.40;84.60;;;;;;6250018;23;20004;-79
2023/01/31 03:40:36;;;;;;;4.88;1.13;;;8.40;84.60;;;;;;6250311;22;20536;-79
2023/01/31 03:43:11;;;;;;;3.28;0.80;;;8.50;84.70;;;;;;6250226;23;20083;-79
2023/01/31 03:45:56;;;;;;;2.10;0.80;;;8.40;84.70;;;;;;6250290;23;20007;-85
2023/01/31 03:48:26;;;;;;;3.88;1.13;;;8.50;84.70;;;;;;6251509;22;20015;-79
2023/01/31 03:50:57;;;;;;;2.42;0.70;;;8.40;84.70;;;;;;6249408;22;20015;-79
2023/01/31 03:53:22;;;;;;;3.45;1.00;;;8.50;84.80;;;;;;6250572;23;19996;-80
2023/01/31 03:56:09;;;;;;;3.60;1.15;;;8.40;84.70;;;;;;6251520;23;19997;-81
2023/01/31 03:58:40;;;;;;;4.20;0.95;;;8.40;84.70;;;;;;6250712;23;20000;-80
2023/01/31 04:01:08;;;;;;;4.38;1.33;;;8.40;84.70;;;;;;6250048;22;20457;-79
2023/01/31 04:03:42;;;;;;;3.60;1.15;;;8.50;84.70;;;;;;6250041;23;20007;-79
2023/01/31 04:06:09;;;;;;;3.20;1.20;;;8.40;84.70;;;;;;6251653;22;20007;-81
2023/01/31 04:08:35;;;;;;;3.15;0.98;;;8.50;85.30;;;;;;6249735;23;20351;-82
2023/01/31 04:11:13;;;;;;;3.47;0.95;;;8.40;84.70;;;;;;6248612;22;20016;-81
2023/01/31 04:13:40;;;;;;;3.58;0.85;;;8.40;84.70;;;;;;6250018;23;20004;-81
2023/01/31 04:16:06;;;;;;;4.15;1.10;;;8.50;84.80;;;;;;6250421;23;20031;-81
2023/01/31 04:18:31;;;;;;;4.25;1.13;;;8.50;84.70;;;;;;6250692;23;20016;-79
2023/01/31 04:20:56;;;;;;;4.22;1.00;;;8.50;84.70;;;;;;6250187;22;20004;-79
2023/01/31 04:23:23;;;;;;;3.92;0.98;;;8.40;84.70;;;;;;6250090;23;20000;-78
2023/01/31 04:25:51;;;;;;;3.92;1.00;;;8.40;84.70;;;;;;6249691;23;20031;-80
2023/01/31 04:28:16;;;;;;;2.58;0.80;;;8.40;84.70;;;;;;6250224;23;20011;-79
2023/01/31 04:30:42;;;;;;;2.92;0.90;;;8.50;84.80;;;;;;6248605;22;20004;-81
2023/01/31 04:33:07;;;;;;;3.97;0.90;;;8.40;84.70;;;;;;6262423;23;19996;-82
2023/01/31 04:35:33;;;;;;;3.60;1.17;;;8.40;84.70;;;;;;6260104;23;20004;-80
2023/01/31 04:37:59;;;;;;;3.20;0.93;;;8.40;84.80;;;;;;6259591;23;20004;-81
2023/01/31 04:40:24;;;;;;;3.20;0.95;;;8.40;84.70;;;;;;6244239;22;20142;-79
2023/01/31 04:42:50;;;;;;;3.28;1.00;;;8.40;85.30;;;;;;6250963;22;20074;-88
2023/01/31 04:45:15;;;;;;;4.20;0.95;;;8.50;84.80;;;;;;6249258;23;20698;-84
2023/01/31 04:47:41;;;;;;;2.85;0.95;;;8.40;84.80;;;;;;6250354;23;20087;-81
2023/01/31 04:50:07;;;;;;;4.90;1.20;;;8.40;84.80;;;;;;6248087;23;20430;-81
2023/01/31 04:52:33;;;;;;;2.65;0.80;;;8.40;84.70;;;;;;6243157;22;20039;-80
2023/01/31 04:54:58;;;;;;;2.90;0.90;;;8.40;84.70;;;;;;6241120;23;19997;-80
2023/01/31 04:57:24;;;;;;;4.95;1.10;;;8.40;84.70;;;;;;6242079;23;19996;-79
2023/01/31 04:59:51;;;;;;;10.52;1.60;;;8.40;84.70;;;;;;6243953;23;20495;-79
2023/01/31 05:02:17;;;;;;;9.25;1.98;;;8.50;84.60;;;;;;6246681;22;20054;-80
2023/01/31 05:04:43;;;;;;;7.43;1.60;;;8.40;84.50;;;;;;6243842;23;20030;-81
2023/01/31 05:07:09;;;;;;;9.23;1.83;;;8.30;84.50;;;;;;6244797;23;20451;-79
2023/01/31 05:09:34;;;;;;;8.30;1.60;;;8.40;84.60;;;;;;6245295;23;20019;-79
2023/01/31 05:12:00;;;;;;;7.75;1.77;;;8.40;84.70;;;;;;6245167;22;20077;-80
2023/01/31 05:14:26;;;;;;;6.25;1.50;;;8.40;84.70;;;;;;6247890;23;20008;-80
2023/01/31 05:16:51;;;;;;;8.52;2.00;;;8.40;84.70;;;;;;6248107;23;20126;-80
2023/01/31 05:19:17;;;;;;;4.53;1.58;;;8.40;84.70;;;;;;6248509;23;20027;-81
2023/01/31 05:21:57;;;;;;;7.15;1.52;;;8.50;84.80;;;;;;6253253;22;20004;-81
2023/01/31 05:24:26;;;;;;;6.50;1.77;;;8.40;84.70;;;;;;6242177;23;20012;-82
2023/01/31 05:26:55;;;;;;;9.65;2.33;;;8.50;84.80;;;;;;6248070;23;20000;-82
2023/01/31 05:29:21;;;;;;;6.25;1.75;;;8.40;84.70;;;;;;6247176;23;20011;-82
2023/01/31 05:31:50;;;;;;;6.18;1.65;;;8.40;84.70;;;;;;6247297;22;20032;-80
2023/01/31 05:34:16;;;;;;;6.13;1.70;;;8.40;84.70;;;;;;6247759;23;20004;-81
2023/01/31 05:36:42;;;;;;;7.57;1.77;;;8.30;84.60;;;;;;6246381;23;20004;-86
2023/01/31 05:39:08;;;;;;;6.72;1.85;;;8.40;84.70;;;;;;6252299;23;20011;-82
2023/01/31 05:41:33;;;;;;;6.10;1.85;;;8.40;84.70;;;;;;6251633;22;20751;-82
2023/01/31 05:43:59;;;;;;;8.15;1.98;;;8.30;84.70;;;;;;6252286;23;20004;-78
2023/01/31 05:46:24;;;;;;;6.30;2.20;;;8.40;84.70;;;;;;6245168;23;20024;-87
2023/01/31 05:48:50;;;;;;;6.88;1.77;;;8.40;84.70;;;;;;6248782;23;20008;-82
2023/01/31 05:51:15;;;;;;;5.32;1.55;;;8.40;84.70;;;;;;6249205;22;20007;-81
2023/01/31 05:53:41;;;;;;;5.85;1.83;;;8.50;84.80;;;;;;6250630;23;20015;-83
2023/01/31 05:56:06;;;;;;;6.47;1.67;;;8.40;84.70;;;;;;6249863;23;20060;-84
2023/01/31 05:58:32;;;;;;;7.30;1.90;;;8.40;84.70;;;;;;6249697;23;20486;-81
2023/01/31 06:00:57;;;;;;;5.20;1.80;;;8.50;84.80;;;;;;6247315;22;20095;-79
2023/01/31 06:03:23;;;;;;;6.25;2.08;;;8.40;84.70;;;;;;6242938;23;20014;-80
2023/01/31 06:05:49;;;;;;;7.50;2.00;;;8.40;84.70;;;;;;6242678;23;20008;-77
2023/01/31 06:08:14;;;;;;;5.53;1.70;;;8.40;84.70;;;;;;6244387;23;20050;-84
2023/01/31 06:10:39;;;;;;;7.13;1.80;;;8.40;84.70;;;;;;6243236;22;20482;-81
2023/01/31 06:13:06;;;;;;;4.35;1.52;;;8.40;84.70;;;;;;6251841;22;20007;-81
2023/01/31 06:15:32;;;;;;;8.75;1.90;;;8.40;84.70;;;;;;6248884;23;20004;-82
2023/01/31 06:17:58;;;;;;;4.55;1.63;;;8.40;84.70;;;;;;6244081;23;20082;-81
2023/01/31 06:20:24;;;;;;;6.35;2.00;;;8.40;84.70;;;;;;6244543;22;20095;-77
2023/01/31 06:22:50;;;;;;;5.72;1.92;;;8.50;84.80;;;;;;6243163;23;20012;-80
2023/01/31 06:25:18;;;;;;;7.63;1.92;;;8.50;84.70;;;;;;6245842;23;20008;-80
2023/01/31 06:27:43;;;;;;;8.25;2.20;;;8.40;84.60;;;;;;6244876;23;20004;-83
2023/01/31 06:30:10;;;;;;;8.23;2.13;;;8.40;84.60;;;;;;6244573;23;20090;-78
2023/01/31 06:32:35;;;;;;;5.82;2.20;;;8.50;84.50;;;;;;6242981;23;20004;-81
2023/01/31 06:35:02;;;;;;;5.00;1.83;;;8.40;84.50;;;;;;6243329;23;20099;-79
2023/01/31 06:37:28;;;;;;;5.55;1.70;;;8.40;84.60;;;;;;6245193;23;20394;-85
2023/01/31 06:39:53;;;;;;;7.68;1.95;;;8.40;84.60;;;;;;6249244;23;20008;-81
2023/01/31 06:42:18;;;;;;;6.40;1.85;;;8.40;84.70;;;;;;6250880;22;20000;-81
2023/01/31 06:44:44;;;;;;;5.50;1.80;;;8.40;84.70;;;;;;6249427;23;20351;-82
2023/01/31 06:47:11;;;;;;;5.07;2.00;;;8.40;84.70;;;;;;6249064;23;20435;-82
2023/01/31 06:49:37;;;;;;;8.23;1.98;;;8.40;84.70;;;;;;6249499;23;20438;-81
2023/01/31 06:52:03;;;;;;;6.93;1.75;;;8.40;84.70;;;;;;6250392;22;20000;-82
2023/01/31 06:54:28;;;;;;;6.47;1.92;;;8.40;84.70;;;;;;6250015;23;20081;-81
2023/01/31 06:56:54;;;;;;;6.03;2.00;;;8.50;84.70;;;;;;6249517;23;20389;-82
2023/01/31 06:59:19;;;;;;;5.93;2.15;;;8.40;84.70;;;;;;6249501;23;20012;-82
2023/01/31 07:01:45;;;;;;;6.65;1.90;;;8.40;84.70;;;;;;6249903;22;20007;-81
2023/01/31 07:04:10;;;;;;;7.00;2.00;;;8.40;84.80;;;;;;6249363;23;20008;-83
2023/01/31 07:06:36;;;;;;;7.50;2.03;;;8.40;84.70;;;;;;6247672;23;20055;-82
2023/01/31 07:09:01;;;;;;;5.63;1.80;;;8.40;84.70;;;;;;6247956;23;20008;-82
2023/01/31 07:11:27;;;;;;;6.20;1.75;;;8.40;84.70;;;;;;6248778;22;20008;-84
2023/01/31 07:13:52;;;;;;;7.00;1.75;;;8.40;84.70;;;;;;6249820;23;19992;-82
2023/01/31 07:16:18;;;;;;;5.93;1.88;;;8.50;84.80;;;;;;6245239;23;20347;-82
2023/01/31 07:18:44;;;;;;;5.95;1.90;;;8.40;84.70;;;;;;6246933;23;20079;-82
2023/01/31 07:21:09;;;;;;;5.63;1.80;;;8.40;84.70;;;;;;6247634;22;20015;-82
2023/01/31 07:23:35;;;;;;;5.38;1.92;;;8.40;84.70;;;;;;6247760;23;20000;-82
2023/01/31 07:26:04;;;;;;;5.22;2.00;;;8.40;84.70;;;;;;6249901;23;20004;-82
2023/01/31 07:28:30;;;;;;;4.00;1.58;;;8.40;84.70;;;;;;6250014;23;20031;-81
2023/01/31 07:31:03;;;;;;;5.85;2.03;;;8.50;84.80;;;;;;6249144;22;20453;-81
2023/01/31 07:33:29;;;;;;;6.72;2.00;;;8.40;84.80;;;;;;6250832;23;20004;-82
2023/01/31 07:35:54;;;;;;;5.10;1.85;;;8.40;84.70;;;;;;6249525;23;20027;-83
2023/01/31 07:38:20;;;;;;;6.13;2.08;;;8.40;84.70;;;;;;6249950;23;20042;-81
2023/01/31 07:40:45;;;;;;;5.03;1.88;;;8.50;84.80;;;;;;6251928;22;20066;-82
2023/01/31 07:43:10;;;;;;;7.00;1.98;;;8.40;85.20;;;;;;6246919;23;20752;-82
2023/01/31 07:45:38;;;;;;;6.72;1.95;;;8.40;84.70;;;;;;6248136;23;20007;-82
2023/01/31 07:48:05;;;;;;;5.70;1.73;;;8.40;84.70;;;;;;6251689;23;20138;-82
2023/01/31 07:50:30;;;;;;;5.93;2.00;;;8.50;84.80;;;;;;6258932;22;20430;-83
2023/01/31 07:52:57;;;;;;;5.32;1.75;;;8.40;84.70;;;;;;6259220;22;20050;-84
2023/01/31 07:55:23;;;;;;;6.40;2.33;;;8.50;84.80;;;;;;6256634;23;20113;-85
2023/01/31 07:57:49;;;;;;;6.50;1.80;;;8.40;84.70;;;;;;6257643;23;20046;-82
2023/01/31 08:05:45;;;;;;;4.75;1.80;;;8.50;84.80;;;;;;6254218;23;20062;-84
2023/01/31 08:08:11;;;;;;;6.10;2.22;;;8.40;84.70;;;;;;6255851;23;20050;-82
2023/01/31 08:10:36;;;;;;;4.60;1.92;;;8.40;84.80;;;;;;6254676;22;20012;-84
2023/01/31 08:13:02;;;;;;;6.07;1.95;;;8.50;84.80;;;;;;6255358;23;20000;-82
2023/01/31 08:15:27;;;;;;;5.80;2.08;;;8.50;84.80;;;;;;6254319;23;20039;-82
2023/01/31 08:17:53;;;;;;;6.85;2.10;;;8.40;84.70;;;;;;6254441;23;20004;-83
2023/01/31 08:20:18;;;;;;;4.72;1.83;;;8.50;84.80;;;;;;6253311;22;20008;-82
2023/01/31 08:22:44;;;;;;;5.47;2.00;;;8.40;84.70;;;;;;6253342;23;20583;-82
2023/01/31 08:25:09;;;;;;;5.68;2.03;;;8.50;84.80;;;;;;6246259;23;20005;-80
2023/01/31 08:27:35;;;;;;;6.55;1.90;;;8.50;84.80;;;;;;6249525;23;20011;-86
2023/01/31 08:30:01;;;;;;;5.88;1.90;;;8.40;85.30;;;;;;6252731;22;20015;-83
2023/01/31 08:32:26;;;;;;;6.85;2.08;;;8.50;84.80;;;;;;6250711;22;20004;-83
2023/01/31 08:34:52;;;;;;;5.28;1.85;;;8.50;84.80;;;;;;6251902;23;20023;-84
2023/01/31 08:37:17;;;;;;;6.43;2.00;;;8.40;84.80;;;;;;6258814;23;20016;-83
2023/01/31 08:39:43;;;;;;;5.30;1.80;;;8.40;84.80;;;;;;6258096;23;20064;-83
2023/01/31 08:42:08;;;;;;;6.07;2.33;;;8.50;84.80;;;;;;6257541;22;20003;-85
2023/01/31 08:44:36;;;;;;;6.75;2.30;;;8.50;84.80;;;;;;6256900;23;20000;-83
2023/01/31 08:47:02;;;;;;;5.10;2.58;;;8.50;84.80;;;;;;6255644;23;20012;-83
2023/01/31 08:49:27;;;;;;;5.35;2.03;;;8.50;84.80;;;;;;6254672;23;20050;-83
2023/01/31 08:51:53;;;;;;;4.95;2.00;;;8.50;84.80;;;;;;6252351;22;20004;-84
2023/01/31 08:54:18;;;;;;;4.70;1.77;;;8.40;84.80;;;;;;6252323;23;19996;-85
2023/01/31 08:56:44;;;;;;;5.68;2.10;;;8.50;84.80;;;;;;6253957;22;20000;-82
2023/01/31 08:59:10;;;;;;;5.40;2.05;;;8.50;84.90;;;;;;6247657;23;20007;-82
2023/01/31 09:01:36;;;;;;;4.97;2.20;;;8.50;84.90;;;;;;6248044;22;20004;-84
2023/01/31 09:04:01;;;;;;;5.63;2.13;;;8.50;84.90;;;;;;6251634;23;20087;-82
2023/01/31 09:06:27;;;;;;;5.35;2.10;;;8.50;84.80;;;;;;6253370;22;20000;-82
2023/01/31 09:08:55;;;;;;;5.35;2.10;;;8.50;84.80;;;;;;6250624;23;20027;-83
2023/01/31 09:11:20;;;;;;;5.35;2.05;;;8.50;84.80;;;;;;6247986;22;20459;-82
2023/01/31 09:13:50;;;;;;;6.20;2.20;;;8.50;84.80;;;;;;6252392;22;20022;-83
2023/01/31 09:16:16;;;;;;;5.05;2.13;;;8.50;84.90;;;;;;6247177;23;20011;-81
2023/01/31 09:18:42;;;;;;;5.22;2.00;;;8.50;84.90;;;;;;6246634;23;20003;-83
2023/01/31 09:21:13;;;;;;;6.90;2.17;;;8.50;84.80;;;;;;6249517;22;20054;-82
2023/01/31 09:23:38;;;;;;;4.05;1.70;;;8.50;84.90;;;;;;6248879;23;20004;-84
2023/01/31 09:26:04;;;;;;;7.15;2.70;;;8.50;84.90;;;;;;6250563;22;19996;-82
2023/01/31 09:28:30;;;;;;;5.05;2.03;;;8.50;84.80;;;;;;6249748;23;20004;-83
2023/01/31 09:31:03;;;;;;;5.70;2.17;;;8.50;84.80;;;;;;6250302;22;20015;-84
2023/01/31 09:33:30;;;;;;;5.22;2.25;;;8.50;84.90;;;;;;6248451;23;20012;-84
2023/01/31 09:35:57;;;;;;;5.57;2.13;;;8.50;84.90;;;;;;6246767;23;20008;-84
2023/01/31 09:38:23;;;;;;;6.32;2.20;;;8.50;84.90;;;;;;6249926;22;19996;-82
2023/01/31 09:40:49;;;;;;;5.80;2.15;;;8.50;84.90;;;;;;6246718;22;20023;-82
2023/01/31 09:43:18;;;;;;;5.60;2.20;;;8.50;84.90;;;;;;6245460;23;20032;-81
2023/01/31 09:45:45;;;;;;;5.50;2.38;;;8.50;85.00;;;;;;6245050;23;20450;-82
2023/01/31 09:48:21;;;;;;;4.63;1.90;;;8.50;84.90;;;;;;6245388;23;20008;-83
2023/01/31 09:50:50;;;;;;;6.03;2.13;;;8.50;84.90;;;;;;6247374;22;20000;-82
2023/01/31 09:53:20;;;;;;;6.25;2.20;;;8.50;84.90;;;;;;6247339;23;20057;-82
2023/01/31 09:56:12;;;;;;;6.57;2.38;;;8.50;84.90;;;;;;6247201;23;20022;-82
2023/01/31 09:58:47;;;;;;;5.38;1.80;;;8.50;84.90;;;;;;6245430;23;20084;-82
2023/01/31 10:01:28;;;;;;;7.05;2.30;;;8.50;84.90;;;;;;6245893;22;20391;-82
2023/01/31 10:04:12;;;;;;;5.75;2.15;;;8.50;84.90;;;;;;6247513;23;20008;-84
2023/01/31 10:07:02;;;;;;;5.13;2.10;;;8.50;85.00;;;;;;6249283;22;20435;-81
2023/01/31 10:09:43;;;;;;;5.85;2.15;;;8.50;84.90;;;;;;6248081;23;20008;-82
2023/01/31 10:12:23;;;;;;;6.10;2.22;;;8.50;85.00;;;;;;6248504;22;20438;-83
2023/01/31 10:14:53;;;;;;;5.30;2.08;;;8.50;84.90;;;;;;6246624;23;20054;-82
2023/01/31 10:17:31;;;;;;;5.07;2.05;;;8.50;84.90;;;;;;6246530;23;20004;-83
2023/01/31 10:20:21;;;;;;;5.82;1.92;;;8.50;84.90;;;;;;6246374;23;20057;-82
2023/01/31 10:23:02;;;;;;;7.22;2.22;;;8.50;84.90;;;;;;6250498;22;20022;-81
2023/01/31 10:25:36;;;;;;;6.25;2.55;;;8.50;85.00;;;;;;6251634;22;20031;-82
2023/01/31 10:28:16;;;;;;;6.72;2.25;;;8.50;84.90;;;;;;6249681;23;20028;-81
2023/01/31 10:31:07;;;;;;;9.65;2.47;;;8.50;84.90;;;;;;6249252;22;20012;-81
2023/01/31 10:33:41;;;;;;;4.88;1.95;;;8.50;84.90;;;;;;6250455;23;20000;-82
2023/01/31 10:36:30;;;;;;;5.30;2.17;;;8.50;84.90;;;;;;6250928;22;20004;-81
2023/01/31 10:39:02;;;;;;;5.30;2.13;;;8.50;84.90;;;;;;6249220;23;20004;-81
2023/01/31 10:42:00;;;;;;;6.00;2.20;;;8.50;84.90;;;;;;6249271;22;20011;-82
2023/01/31 10:44:54;;;;;;;6.10;2.10;;;8.50;85.00;;;;;;6197073;23;20019;-79
2023/01/31 10:47:28;;;;;;;7.00;2.60;;;8.50;84.90;;;;;;6247488;23;20008;-83
2023/01/31 10:49:53;;;;;;;5.63;2.15;;;8.50;85.00;;;;;;6247548;23;20004;-83
2023/01/31 10:52:39;;;;;;;6.45;2.05;;;8.50;84.90;;;;;;6248054;22;20054;-82
2023/01/31 10:55:41;;;;;;;4.43;1.90;;;8.50;84.90;;;;;;6249764;22;20007;-79
2023/01/31 10:58:13;;;;;;;5.03;1.95;;;8.50;84.90;;;;;;6248237;23;20383;-82
2023/01/31 11:00:39;;;;;;;7.65;2.30;;;8.50;84.90;;;;;;6247191;22;20054;-81
2023/01/31 11:03:04;;;;;;;5.22;2.08;;;8.50;84.90;;;;;;6248103;23;20381;-83
2023/01/31 11:05:30;;;;;;;5.22;2.17;;;8.50;84.90;;;;;;6248048;23;20010;-83
2023/01/31 11:08:05;;;;;;;5.05;2.10;;;8.50;84.80;;;;;;6254537;23;20382;-84
2023/01/31 11:10:31;;;;;;;5.20;2.17;;;8.50;84.80;;;;;;6238172;22;20068;-83
2023/01/31 11:13:03;;;;;;;5.38;2.10;;;8.60;84.90;;;;;;6128554;23;20010;-82
2023/01/31 11:15:38;;;;;;;5.47;2.20;;;8.40;84.80;;;;;;6097282;23;20070;-82
2023/01/31 11:18:04;;;;;;;6.60;2.35;;;8.50;84.80;;;;;;6104385;23;20360;-82
2023/01/31 11:20:47;;;;;;;4.90;2.10;;;8.50;84.80;;;;;;6131189;23;20006;-84
2023/01/31 11:23:16;;;;;;;6.90;2.55;;;8.50;84.80;;;;;;6103838;23;20490;-83
2023/01/31 11:25:51;;;;;;;4.70;2.33;;;8.50;84.80;;;;;;6102668;23;20036;-83
2023/01/31 11:28:25;;;;;;;5.95;2.22;;;8.50;84.70;;;;;;6127663;23;20006;-83
2023/01/31 11:30:52;;;;;;;5.45;2.20;;;8.50;84.70;;;;;;6102263;23;20060;-82
2023/01/31 11:33:44;;;;;;;5.40;2.00;;;8.50;84.80;;;;;;6125591;23;19998;-84
2023/01/31 11:36:25;;;;;;;5.40;2.17;;;8.50;84.80;;;;;;6101910;23;20026;-82
2023/01/31 11:38:52;;;;;;;5.20;2.13;;;8.50;84.80;;;;;;6102131;23;20087;-82
2023/01/31 11:41:31;;;;;;;5.13;2.25;;;8.50;84.80;;;;;;6102352;23;20421;-82
2023/01/31 11:44:18;;;;;;;4.82;2.10;;;8.50;84.80;;;;;;6101489;23;20009;-82
2023/01/31 11:46:56;;;;;;;6.13;2.22;;;8.60;84.90;;;;;;6101339;23;20032;-83
2023/01/31 11:49:34;;;;;;;4.43;2.03;;;8.50;84.80;;;;;;6096961;23;20096;-82
2023/01/31 11:52:11;;;;;;;5.22;2.45;;;8.50;84.80;;;;;;6098096;23;20009;-82
2023/01/31 11:54:42;;;;;;;6.72;2.30;;;8.60;84.90;;;;;;6128396;23;20006;-83
2023/01/31 11:57:23;;;;;;;6.07;2.10;;;8.60;84.90;;;;;;6132228;23;19998;-84
2023/01/31 11:59:52;;;;;;;5.60;2.20;;;8.50;84.80;;;;;;6105530;23;20012;-83
2023/01/31 12:02:30;;;;;;;4.65;2.28;;;8.50;84.90;;;;;;6130767;23;20006;-86
2023/01/31 12:04:56;;;;;;;5.93;2.30;;;8.50;85.00;;;;;;6105341;23;20105;-83
2023/01/31 12:07:25;;;;;;;5.45;2.30;;;8.50;85.00;;;;;;6105371;23;20820;-83
2023/01/31 12:09:51;;;;;;;5.78;2.30;;;8.50;84.90;;;;;;6105288;23;20084;-84
2023/01/31 12:12:33;;;;;;;6.68;2.58;;;8.50;85.00;;;;;;6233502;23;20015;-83
2023/01/31 12:15:11;;;;;;;6.28;2.25;;;8.50;85.00;;;;;;6254666;22;20007;-83
2023/01/31 12:17:45;;;;;;;5.68;2.30;;;8.50;85.00;;;;;;6247225;22;19992;-82
2023/01/31 12:20:16;;;;;;;6.03;2.35;;;8.50;85.00;;;;;;6255916;22;20040;-82
2023/01/31 12:23:01;;;;;;;4.90;2.17;;;8.50;85.00;;;;;;6254246;23;20026;-83
2023/01/31 12:26:10;;;;;;;5.13;2.42;;;8.50;84.90;;;;;;6253096;23;20055;-82
2023/01/31 12:28:41;;;;;;;7.00;2.60;;;8.50;84.90;;;;;;6231426;23;20016;-83
2023/01/31 12:31:39;;;;;;;5.72;2.25;;;8.50;85.00;;;;;;6252052;22;20004;-81
2023/01/31 12:34:49;;;;;;;6.43;2.30;;;8.50;84.90;;;;;;6250385;23;20000;-82
2023/01/31 12:37:51;;;;;;;5.10;2.38;;;8.50;84.90;;;;;;6211664;23;20000;-82
2023/01/31 12:40:37;;;;;;;5.32;2.38;;;8.50;84.90;;;;;;6249446;22;20031;-82
2023/01/31 12:43:13;;;;;;;5.78;2.30;;;8.50;85.00;;;;;;6248950;23;20010;-82
2023/01/31 12:46:08;;;;;;;5.68;2.53;;;8.60;85.00;;;;;;6248960;23;20058;-82
2023/01/31 12:48:58;;;;;;;6.32;2.45;;;8.60;84.90;;;;;;6211076;23;20450;-82
2023/01/31 12:51:42;;;;;;;5.70;2.28;;;8.60;84.90;;;;;;6249518;22;20082;-81
2023/01/31 12:54:31;;;;;;;5.18;2.40;;;8.50;85.00;;;;;;6246210;23;20030;-83
2023/01/31 12:57:22;;;;;;;15.63;3.25;;;8.50;84.90;;;;;;6240740;23;20015;-81
2023/01/31 13:00:07;;;;;;;4.97;2.50;;;8.60;85.00;;;;;;6237173;23;20004;-82
2023/01/31 13:02:43;;;;;;;5.72;2.72;;;8.60;85.00;;;;;;6249923;22;20343;-82
2023/01/31 13:05:14;;;;;;;5.18;2.30;;;8.50;84.90;;;;;;6248734;23;20516;-80
2023/01/31 13:07:44;;;;;;;6.30;2.47;;;8.50;85.00;;;;;;6249306;23;20004;-82
2023/01/31 13:10:42;;;;;;;7.25;2.63;;;8.50;85.00;;;;;;6250811;22;20000;-82
2023/01/31 13:13:17;;;;;;;5.25;2.40;;;8.60;84.90;;;;;;6247895;23;20336;-82
2023/01/31 13:15:46;;;;;;;5.53;2.50;;;8.50;84.90;;;;;;6244881;23;20427;-82
2023/01/31 13:18:13;;;;;;;5.80;2.47;;;8.60;85.00;;;;;;6247425;22;19997;-82
2023/01/31 13:20:44;;;;;;;5.53;2.33;;;8.50;84.90;;;;;;6245791;22;20004;-82
2023/01/31 13:23:18;;;;;;;5.30;2.40;;;8.60;85.00;;;;;;6244419;23;20004;-82
2023/01/31 13:25:52;;;;;;;6.22;2.78;;;8.60;85.00;;;;;;6248677;22;20092;-82
2023/01/31 13:28:19;;;;;;;5.90;2.40;;;8.50;84.90;;;;;;6246876;23;20004;-82
2023/01/31 13:30:56;;;;;;;5.45;2.40;;;8.60;85.00;;;;;;6249715;22;20023;-82